createdAt,value
2024-01-20T00:00:24.327Z,18.40
2024-01-20T00:01:27.698Z,18.77
2024-01-20T00:02:29.647Z,21.20
2024-01-20T00:03:32.697Z,16.20
2024-01-20T00:04:34.878Z,16.48
2024-01-20T00:05:39.479Z,17.63
2024-01-20T00:06:43.411Z,19.00
2024-01-20T00:07:47.655Z,21.63
2024-01-20T00:08:49.794Z,16.20
2024-01-20T00:09:52.818Z,18.73
2024-01-20T00:10:54.876Z,17.08
2024-01-20T00:11:58.092Z,18.42
2024-01-20T00:13:00.076Z,18.30
2024-01-20T00:14:03.424Z,16.55
2024-01-20T00:15:07.293Z,22.25
2024-01-20T00:16:10.690Z,19.65
2024-01-20T00:17:21.325Z,22.27
2024-01-20T00:18:29.189Z,17.65
2024-01-20T00:19:31.293Z,19.67
2024-01-20T00:20:34.400Z,19.40
2024-01-20T00:21:39.289Z,17.90
2024-01-20T00:22:41.371Z,16.70
2024-01-20T00:23:44.338Z,13.70
2024-01-20T00:24:47.259Z,16.73
2024-01-20T00:25:51.364Z,21.23
2024-01-20T00:26:53.292Z,18.17
2024-01-20T00:27:56.195Z,19.63
2024-01-20T00:28:58.369Z,16.85
2024-01-20T00:30:01.778Z,20.33
2024-01-20T00:31:05.268Z,16.90
2024-01-20T00:32:08.620Z,13.57
2024-01-20T00:33:10.943Z,18.35
2024-01-20T00:34:14.003Z,17.33
2024-01-20T00:35:16.264Z,13.77
2024-01-20T00:36:19.622Z,17.70
2024-01-20T00:37:22.897Z,14.55
2024-01-20T00:38:26.583Z,15.07
2024-01-20T00:39:29.488Z,18.10
2024-01-20T00:40:31.707Z,17.92
2024-01-20T00:41:34.654Z,21.88
2024-01-20T00:42:36.645Z,17.23
2024-01-20T00:43:39.628Z,17.85
2024-01-20T00:44:42.785Z,15.43
2024-01-20T00:45:45.657Z,18.50
2024-01-20T00:46:47.720Z,17.85
2024-01-20T00:47:49.633Z,18.48
2024-01-20T00:48:52.836Z,15.70
2024-01-20T00:49:54.906Z,14.75
2024-01-20T00:50:57.794Z,18.33
2024-01-20T00:51:59.742Z,18.58
2024-01-20T00:53:04.293Z,13.90
2024-01-20T00:54:06.305Z,19.10
2024-01-20T00:55:11.328Z,16.40
2024-01-20T00:56:13.235Z,17.38
2024-01-20T00:57:15.150Z,15.35
2024-01-20T00:58:31.297Z,15.75
2024-01-20T00:59:33.216Z,16.15
2024-01-20T01:00:36.238Z,14.63
2024-01-20T01:01:38.491Z,14.10
2024-01-20T01:02:42.669Z,18.42
2024-01-20T01:03:44.610Z,16.08
2024-01-20T01:04:47.548Z,16.50
2024-01-20T01:05:49.505Z,14.55
2024-01-20T01:06:52.390Z,16.75
2024-01-20T01:07:54.313Z,15.70
2024-01-20T01:08:58.511Z,13.77
2024-01-20T01:10:00.594Z,14.95
2024-01-20T01:11:03.723Z,15.35
2024-01-20T01:12:06.230Z,17.58
2024-01-20T01:13:09.110Z,16.75
2024-01-20T01:14:11.140Z,15.20
2024-01-20T01:15:14.180Z,16.92
2024-01-20T01:16:16.352Z,13.93
2024-01-20T01:17:19.498Z,18.08
2024-01-20T01:18:21.672Z,16.40
2024-01-20T01:19:26.063Z,15.40
2024-01-20T01:20:28.161Z,20.33
2024-01-20T01:21:31.158Z,21.02
2024-01-20T01:22:33.139Z,15.20
2024-01-20T01:23:36.090Z,14.48
2024-01-20T01:24:39.387Z,15.68
2024-01-20T01:25:42.306Z,15.95
2024-01-20T01:26:45.434Z,17.30
2024-01-20T01:27:47.389Z,17.73
2024-01-20T01:28:50.354Z,16.02
2024-01-20T01:29:52.336Z,14.90
2024-01-20T01:30:55.265Z,15.15
2024-01-20T01:31:57.209Z,15.10
2024-01-20T01:32:59.216Z,16.10
2024-01-20T01:34:02.202Z,17.38
2024-01-20T01:35:05.912Z,12.25
2024-01-20T01:36:08.993Z,14.52
2024-01-20T01:37:10.861Z,11.85
2024-01-20T01:38:12.904Z,17.33
2024-01-20T01:39:16.824Z,13.85
2024-01-20T01:40:20.067Z,14.40
2024-01-20T01:41:22.986Z,11.32
2024-01-20T01:42:24.929Z,15.20
2024-01-20T01:43:28.437Z,12.48
2024-01-20T01:44:30.308Z,13.88
2024-01-20T01:45:35.177Z,12.88
2024-01-20T01:46:37.594Z,13.00
2024-01-20T01:47:40.854Z,10.93
2024-01-20T01:48:42.872Z,11.15
2024-01-20T01:49:46.009Z,10.63
2024-01-20T01:50:49.070Z,12.27
2024-01-20T01:51:52.889Z,12.85
2024-01-20T01:52:55.888Z,13.50
2024-01-20T01:54:02.656Z,11.13
2024-01-20T01:55:05.643Z,13.77
2024-01-20T01:56:10.684Z,10.13
2024-01-20T01:57:15.221Z,14.15
2024-01-20T01:58:18.454Z,13.65
2024-01-20T01:59:20.607Z,12.07
2024-01-20T02:00:23.986Z,12.18
2024-01-20T02:01:26.743Z,11.82
2024-01-20T02:02:29.628Z,9.75
2024-01-20T02:03:31.714Z,13.52
2024-01-20T02:04:33.630Z,11.00
2024-01-20T02:05:36.543Z,9.30
2024-01-20T02:06:38.798Z,13.85
2024-01-20T02:07:43.853Z,10.32
2024-01-20T02:08:45.931Z,9.45
2024-01-20T02:09:48.897Z,13.40
2024-01-20T02:10:51.128Z,11.73
2024-01-20T02:11:56.369Z,12.68
2024-01-20T02:12:59.532Z,10.30
2024-01-20T02:14:03.032Z,8.52
2024-01-20T02:15:06.184Z,16.13
2024-01-20T02:16:09.196Z,10.27
2024-01-20T02:17:11.364Z,9.48
2024-01-20T02:18:14.342Z,11.02
2024-01-20T02:19:16.454Z,10.90
2024-01-20T02:20:19.602Z,8.90
2024-01-20T02:21:21.654Z,8.60
2024-01-20T02:22:25.936Z,7.60
2024-01-20T02:23:28.325Z,8.63
2024-01-20T02:24:31.262Z,12.18
2024-01-20T02:25:33.174Z,8.02
2024-01-20T02:26:35.058Z,10.85
2024-01-20T02:27:38.075Z,14.13
2024-01-20T02:28:39.915Z,10.02
2024-01-20T02:29:42.828Z,12.45
2024-01-20T02:30:46.524Z,10.30
2024-01-20T02:31:49.383Z,8.98
2024-01-20T02:32:51.458Z,11.13
2024-01-20T02:33:53.680Z,7.20
2024-01-20T02:34:56.680Z,8.10
2024-01-20T02:35:58.612Z,9.15
2024-01-20T02:37:01.589Z,9.23
2024-01-20T02:38:05.159Z,7.50
2024-01-20T02:39:08.240Z,9.05
2024-01-20T02:40:10.421Z,8.50
2024-01-20T02:41:13.326Z,8.35
2024-01-20T02:42:15.430Z,6.95
2024-01-20T02:43:18.391Z,10.73
2024-01-20T02:44:20.212Z,7.55
2024-01-20T02:45:23.122Z,7.25
2024-01-20T02:46:25.108Z,10.13
2024-01-20T02:47:27.989Z,12.32
2024-01-20T02:48:30.738Z,11.00
2024-01-20T02:49:34.303Z,8.15
2024-01-20T02:50:36.240Z,9.25
2024-01-20T02:51:39.053Z,8.85
2024-01-20T02:52:40.914Z,7.95
2024-01-20T02:53:45.120Z,10.27
2024-01-20T02:54:47.044Z,8.00
2024-01-20T02:55:49.903Z,11.25
2024-01-20T02:56:51.948Z,10.70
2024-01-20T02:57:54.814Z,8.98
2024-01-20T02:58:56.635Z,9.27
2024-01-20T02:59:59.740Z,9.32
2024-01-20T03:01:03.398Z,9.30
2024-01-20T03:02:06.455Z,9.80
2024-01-20T03:03:08.628Z,9.75
2024-01-20T03:04:11.590Z,10.18
2024-01-20T03:05:13.759Z,9.27
2024-01-20T03:06:16.735Z,10.82
2024-01-20T03:07:19.045Z,8.20
2024-01-20T03:08:21.923Z,9.63
2024-01-20T03:09:25.159Z,6.80
2024-01-20T03:10:28.089Z,11.73
2024-01-20T03:11:30.185Z,8.52
2024-01-20T03:12:33.256Z,7.50
2024-01-20T03:13:35.259Z,7.53
2024-01-20T03:14:37.286Z,8.85
2024-01-20T03:15:40.320Z,9.27
2024-01-20T03:16:42.229Z,8.10
2024-01-20T03:17:45.112Z,7.70
2024-01-20T03:18:47.190Z,8.25
2024-01-20T03:19:50.252Z,10.45
2024-01-20T03:20:52.122Z,10.48
2024-01-20T03:21:54.095Z,8.80
2024-01-20T03:22:56.967Z,6.50
2024-01-20T03:23:59.209Z,9.77
2024-01-20T03:25:03.895Z,6.47
2024-01-20T03:26:09.410Z,8.20
2024-01-20T03:27:12.233Z,9.40
2024-01-20T03:28:14.094Z,8.13
2024-01-20T03:29:17.256Z,7.85
2024-01-20T03:30:19.360Z,10.50
2024-01-20T03:31:22.571Z,8.35
2024-01-20T03:32:24.500Z,8.70
2024-01-20T03:33:27.529Z,8.38
2024-01-20T03:34:29.548Z,7.55
2024-01-20T03:35:32.835Z,8.10
2024-01-20T03:36:34.724Z,7.85
2024-01-20T03:37:37.754Z,8.68
2024-01-20T03:38:39.669Z,9.23
2024-01-20T03:39:42.543Z,7.60
2024-01-20T03:40:45.896Z,7.55
2024-01-20T03:41:48.811Z,9.32
2024-01-20T03:42:50.708Z,5.88
2024-01-20T03:43:52.627Z,9.35
2024-01-20T03:44:55.616Z,6.22
2024-01-20T03:45:57.585Z,9.75
2024-01-20T03:47:00.551Z,9.70
2024-01-20T03:48:02.776Z,7.97
2024-01-20T03:49:06.056Z,7.55
2024-01-20T03:50:10.592Z,8.48
2024-01-20T03:51:13.842Z,10.18
2024-01-20T03:52:15.777Z,8.75
2024-01-20T03:53:18.580Z,7.03
2024-01-20T03:54:21.046Z,8.15
2024-01-20T03:55:23.108Z,8.75
2024-01-20T03:56:27.278Z,9.32
2024-01-20T03:57:29.232Z,7.35
2024-01-20T03:58:32.126Z,7.68
2024-01-20T03:59:34.111Z,8.98
2024-01-20T04:00:37.158Z,7.20
2024-01-20T04:01:40.587Z,8.60
2024-01-20T04:02:43.524Z,10.05
2024-01-20T04:03:45.988Z,6.43
2024-01-20T04:04:48.983Z,6.93
2024-01-20T04:05:50.960Z,9.02
2024-01-20T04:06:53.917Z,9.52
2024-01-20T04:07:55.818Z,8.15
2024-01-20T04:08:57.769Z,8.07
2024-01-20T04:10:00.824Z,7.07
2024-01-20T04:11:02.955Z,9.20
2024-01-20T04:12:08.419Z,8.43
2024-01-20T04:13:10.351Z,7.25
2024-01-20T04:14:13.244Z,8.00
2024-01-20T04:15:15.241Z,9.50
2024-01-20T04:16:18.216Z,7.28
2024-01-20T04:17:20.114Z,8.60
2024-01-20T04:18:24.042Z,8.98
2024-01-20T04:19:26.043Z,7.63
2024-01-20T04:20:28.961Z,11.35
2024-01-20T04:21:30.859Z,9.35
2024-01-20T04:22:33.733Z,7.68
2024-01-20T04:23:35.654Z,10.75
2024-01-20T04:24:38.528Z,8.77
2024-01-20T04:25:40.476Z,7.82
2024-01-20T04:26:43.938Z,9.40
2024-01-20T04:27:47.285Z,10.13
2024-01-20T04:28:50.464Z,6.95
2024-01-20T04:29:52.430Z,7.85
2024-01-20T04:30:55.359Z,9.30
2024-01-20T04:31:57.165Z,8.05
2024-01-20T04:33:00.023Z,7.75
2024-01-20T04:34:02.174Z,6.93
2024-01-20T04:35:06.616Z,9.00
2024-01-20T04:36:08.575Z,8.25
2024-01-20T04:37:11.473Z,8.38
2024-01-20T04:38:13.360Z,9.45
2024-01-20T04:39:16.406Z,6.65
2024-01-20T04:40:18.289Z,9.60
2024-01-20T04:41:21.105Z,9.70
2024-01-20T04:42:23.112Z,8.55
2024-01-20T04:43:29.472Z,8.63
2024-01-20T04:44:31.393Z,9.77
2024-01-20T04:45:34.504Z,9.27
2024-01-20T04:46:36.553Z,6.95
2024-01-20T04:47:39.502Z,9.43
2024-01-20T04:48:41.466Z,9.18
2024-01-20T04:49:44.561Z,8.15
2024-01-20T04:50:46.659Z,8.90
2024-01-20T04:51:48.746Z,6.32
2024-01-20T04:52:51.577Z,8.10
2024-01-20T04:53:53.477Z,7.00
2024-01-20T04:54:56.502Z,9.32
2024-01-20T04:55:58.381Z,7.10
2024-01-20T04:57:01.362Z,10.68
2024-01-20T04:58:03.470Z,6.38
2024-01-20T04:59:07.800Z,10.23
2024-01-20T05:00:10.675Z,7.70
2024-01-20T05:01:13.675Z,9.43
2024-01-20T05:02:15.776Z,7.35
2024-01-20T05:03:18.718Z,8.10
2024-01-20T05:04:20.734Z,9.35
2024-01-20T05:05:22.644Z,9.63
2024-01-20T05:06:25.469Z,10.15
2024-01-20T05:07:27.337Z,12.60
2024-01-20T05:08:30.217Z,6.60
2024-01-20T05:09:32.229Z,9.60
2024-01-20T05:10:35.536Z,10.23
2024-01-20T05:11:37.353Z,9.30
2024-01-20T05:12:40.277Z,8.95
2024-01-20T05:13:42.129Z,8.00
2024-01-20T05:14:46.530Z,10.70
2024-01-20T05:15:48.464Z,7.80
2024-01-20T05:16:51.507Z,8.27
2024-01-20T05:17:54.016Z,8.57
2024-01-20T05:18:57.166Z,10.32
2024-01-20T05:19:59.194Z,7.45
2024-01-20T05:21:02.228Z,7.88
2024-01-20T05:22:04.299Z,7.50
2024-01-20T05:23:07.172Z,10.75
2024-01-20T05:24:09.145Z,8.80
2024-01-20T05:25:11.969Z,12.77
2024-01-20T05:26:13.804Z,8.32
2024-01-20T05:27:15.621Z,7.60
2024-01-20T05:28:18.479Z,9.10
2024-01-20T05:29:20.349Z,7.97
2024-01-20T05:30:24.987Z,6.90
2024-01-20T05:31:32.433Z,8.65
2024-01-20T05:32:36.026Z,11.20
2024-01-20T05:33:38.169Z,10.07
2024-01-20T05:34:41.160Z,8.50
2024-01-20T05:35:43.103Z,8.60
2024-01-20T05:36:46.451Z,9.43
2024-01-20T05:37:48.282Z,12.35
2024-01-20T05:38:51.169Z,7.32
2024-01-20T05:39:53.084Z,8.95
2024-01-20T05:40:56.056Z,9.00
2024-01-20T05:41:57.966Z,10.25
2024-01-20T05:43:00.871Z,8.10
2024-01-20T05:44:03.840Z,7.00
2024-01-20T05:45:10.590Z,8.00
2024-01-20T05:46:15.265Z,10.50
2024-01-20T05:47:17.198Z,7.40
2024-01-20T05:48:20.409Z,9.70
2024-01-20T05:49:22.588Z,6.45
2024-01-20T05:50:25.664Z,12.35
2024-01-20T05:51:27.606Z,7.00
2024-01-20T05:52:30.443Z,8.57
2024-01-20T05:53:32.272Z,9.68
2024-01-20T05:54:35.549Z,8.35
2024-01-20T05:55:37.690Z,7.60
2024-01-20T05:56:40.524Z,8.20
2024-01-20T05:57:42.418Z,6.70
2024-01-20T05:58:45.287Z,7.93
2024-01-20T05:59:47.117Z,10.52
2024-01-20T06:00:50.719Z,10.95
2024-01-20T06:01:54.126Z,7.20
2024-01-20T06:02:57.121Z,8.70
2024-01-20T06:03:59.085Z,8.48
2024-01-20T06:05:02.080Z,6.18
2024-01-20T06:06:05.320Z,6.93
2024-01-20T06:07:08.286Z,9.30
2024-01-20T06:08:10.160Z,6.38
2024-01-20T06:09:13.223Z,11.18
2024-01-20T06:10:15.263Z,7.00
2024-01-20T06:11:17.126Z,10.15
2024-01-20T06:12:20.035Z,8.10
2024-01-20T06:13:21.985Z,6.45
2024-01-20T06:14:24.834Z,6.45
2024-01-20T06:15:26.750Z,8.30
2024-01-20T06:16:28.609Z,9.18
2024-01-20T06:17:32.925Z,6.60
2024-01-20T06:18:34.893Z,11.00
2024-01-20T06:19:38.019Z,7.80
2024-01-20T06:20:39.985Z,7.40
2024-01-20T06:21:43.966Z,9.20
2024-01-20T06:22:45.796Z,7.15
2024-01-20T06:23:47.773Z,9.13
2024-01-20T06:24:50.610Z,10.63
2024-01-20T06:25:52.529Z,12.35
2024-01-20T06:26:55.406Z,9.00
2024-01-20T06:27:57.317Z,8.75
2024-01-20T06:29:00.257Z,7.53
2024-01-20T06:30:02.151Z,7.72
2024-01-20T06:31:05.440Z,10.75
2024-01-20T06:32:07.830Z,8.50
2024-01-20T06:33:11.295Z,8.10
2024-01-20T06:34:14.240Z,9.70
2024-01-20T06:35:16.886Z,11.98
2024-01-20T06:36:19.844Z,7.90
2024-01-20T06:37:21.727Z,7.45
2024-01-20T06:38:26.237Z,7.07
2024-01-20T06:39:28.152Z,9.23
2024-01-20T06:40:31.309Z,8.07
2024-01-20T06:41:33.307Z,8.30
2024-01-20T06:42:36.258Z,7.82
2024-01-20T06:43:38.455Z,7.20
2024-01-20T06:44:41.387Z,6.60
2024-01-20T06:45:43.401Z,9.48
2024-01-20T06:46:45.509Z,8.13
2024-01-20T06:47:48.454Z,7.10
2024-01-20T06:48:52.354Z,9.55
2024-01-20T06:49:54.837Z,7.18
2024-01-20T06:50:57.780Z,8.70
2024-01-20T06:51:59.879Z,8.95
2024-01-20T06:53:03.808Z,5.70
2024-01-20T06:54:06.861Z,6.30
2024-01-20T06:55:10.119Z,9.25
2024-01-20T06:56:12.039Z,5.03
2024-01-20T06:57:15.008Z,6.90
2024-01-20T06:58:16.969Z,5.75
2024-01-20T06:59:19.946Z,5.25
2024-01-20T07:00:22.491Z,8.10
2024-01-20T07:01:26.607Z,8.27
2024-01-20T07:02:31.431Z,7.75
2024-01-20T07:03:34.566Z,5.15
2024-01-20T07:04:38.461Z,7.57
2024-01-20T07:05:41.429Z,5.97
2024-01-20T07:06:43.409Z,6.53
2024-01-20T07:07:46.620Z,9.80
2024-01-20T07:08:49.553Z,6.07
2024-01-20T07:09:51.436Z,8.20
2024-01-20T07:10:54.323Z,5.93
2024-01-20T07:11:58.926Z,5.70
2024-01-20T07:13:01.882Z,6.35
2024-01-20T07:14:03.922Z,5.15
2024-01-20T07:15:07.795Z,6.45
2024-01-20T07:16:11.564Z,5.78
2024-01-20T07:17:13.439Z,5.68
2024-01-20T07:18:16.598Z,8.25
2024-01-20T07:19:18.692Z,6.65
2024-01-20T07:20:22.987Z,7.88
2024-01-20T07:21:25.574Z,5.55
2024-01-20T07:22:28.475Z,10.60
2024-01-20T07:23:30.359Z,5.80
2024-01-20T07:24:33.506Z,6.50
2024-01-20T07:25:37.887Z,4.95
2024-01-20T07:26:40.885Z,5.95
2024-01-20T07:27:42.800Z,5.13
2024-01-20T07:28:45.700Z,4.80
2024-01-20T07:29:47.598Z,6.28
2024-01-20T07:30:50.451Z,4.45
2024-01-20T07:31:52.362Z,5.50
2024-01-20T07:32:59.241Z,5.45
2024-01-20T07:34:02.373Z,5.88
2024-01-20T07:35:06.019Z,7.18
2024-01-20T07:36:09.939Z,7.70
2024-01-20T07:37:13.064Z,6.30
2024-01-20T07:38:15.151Z,7.05
2024-01-20T07:39:18.468Z,6.22
2024-01-20T07:40:20.489Z,5.88
2024-01-20T07:41:23.933Z,7.25
2024-01-20T07:42:25.800Z,8.07
2024-01-20T07:43:28.655Z,5.30
2024-01-20T07:44:32.033Z,7.03
2024-01-20T07:45:35.251Z,6.40
2024-01-20T07:46:37.288Z,6.07
2024-01-20T07:47:40.302Z,8.18
2024-01-20T07:48:44.011Z,6.07
2024-01-20T07:49:47.159Z,6.72
2024-01-20T07:50:49.614Z,7.38
2024-01-20T07:51:52.875Z,6.95
2024-01-20T07:52:55.767Z,6.70
2024-01-20T07:53:57.734Z,9.05
2024-01-20T07:55:00.750Z,8.57
2024-01-20T07:56:02.573Z,6.10
2024-01-20T07:57:05.891Z,7.47
2024-01-20T07:58:08.048Z,6.85
2024-01-20T07:59:09.935Z,7.57
2024-01-20T08:00:13.634Z,7.88
2024-01-20T08:01:17.577Z,6.07
2024-01-20T08:02:20.467Z,8.20
2024-01-20T08:03:22.465Z,8.13
2024-01-20T08:04:25.369Z,6.97
2024-01-20T08:05:27.283Z,6.28
2024-01-20T08:06:30.486Z,6.57
2024-01-20T08:07:33.889Z,5.47
2024-01-20T08:08:36.795Z,7.30
2024-01-20T08:09:38.945Z,5.78
2024-01-20T08:10:41.956Z,10.45
2024-01-20T08:11:43.900Z,8.13
2024-01-20T08:12:46.772Z,5.88
2024-01-20T08:13:48.947Z,5.75
2024-01-20T08:14:51.948Z,5.63
2024-01-20T08:15:53.819Z,6.32
2024-01-20T08:16:56.706Z,6.53
2024-01-20T08:17:58.700Z,5.88
2024-01-20T08:19:01.736Z,5.47
2024-01-20T08:20:04.248Z,5.55
2024-01-20T08:21:08.608Z,7.25
2024-01-20T08:22:10.615Z,6.53
2024-01-20T08:23:14.865Z,7.68
2024-01-20T08:24:16.811Z,9.30
2024-01-20T08:25:19.714Z,5.82
2024-01-20T08:26:21.583Z,8.20
2024-01-20T08:27:24.478Z,7.53
2024-01-20T08:28:26.452Z,4.70
2024-01-20T08:29:29.379Z,6.60
2024-01-20T08:30:31.401Z,8.25
2024-01-20T08:31:34.308Z,4.47
2024-01-20T08:32:36.436Z,6.93
2024-01-20T08:33:39.399Z,4.55
2024-01-20T08:34:41.453Z,6.47
2024-01-20T08:35:44.417Z,6.60
2024-01-20T08:36:46.322Z,7.70
2024-01-20T08:37:49.164Z,6.75
2024-01-20T08:38:52.344Z,9.20
2024-01-20T08:39:55.194Z,5.65
2024-01-20T08:40:57.972Z,6.68
2024-01-20T08:42:01.581Z,5.45
2024-01-20T08:43:04.199Z,9.85
2024-01-20T08:44:07.148Z,7.75
2024-01-20T08:45:10.125Z,5.60
2024-01-20T08:46:13.741Z,6.88
2024-01-20T08:47:16.246Z,6.47
2024-01-20T08:48:19.329Z,5.18
2024-01-20T08:49:21.241Z,5.13
2024-01-20T08:50:24.818Z,5.47
2024-01-20T08:51:26.797Z,7.90
2024-01-20T08:52:29.719Z,6.40
2024-01-20T08:53:33.868Z,6.05
2024-01-20T08:54:39.304Z,6.43
2024-01-20T08:55:41.236Z,5.65
2024-01-20T08:56:44.513Z,5.78
2024-01-20T08:57:46.510Z,9.75
2024-01-20T08:58:49.385Z,5.15
2024-01-20T08:59:51.216Z,6.63
2024-01-20T09:00:54.294Z,6.95
2024-01-20T09:01:56.366Z,5.45
2024-01-20T09:02:59.263Z,5.38
2024-01-20T09:04:02.197Z,6.72
2024-01-20T09:05:05.979Z,7.93
2024-01-20T09:06:08.771Z,5.43
2024-01-20T09:07:12.412Z,6.72
2024-01-20T09:08:14.566Z,4.55
2024-01-20T09:09:16.961Z,6.50
2024-01-20T09:10:21.357Z,5.15
2024-01-20T09:11:23.966Z,5.30
2024-01-20T09:12:26.992Z,5.47
2024-01-20T09:13:28.957Z,5.50
2024-01-20T09:14:31.808Z,6.10
2024-01-20T09:15:34.329Z,4.18
2024-01-20T09:16:37.490Z,4.82
2024-01-20T09:17:39.464Z,4.55
2024-01-20T09:18:42.600Z,6.57
2024-01-20T09:19:45.904Z,5.63
2024-01-20T09:20:48.889Z,7.05
2024-01-20T09:21:50.841Z,5.22
2024-01-20T09:22:53.850Z,6.15
2024-01-20T09:23:55.800Z,4.22
2024-01-20T09:24:59.748Z,4.70
2024-01-20T09:26:03.107Z,5.47
2024-01-20T09:27:06.767Z,5.40
2024-01-20T09:28:08.675Z,7.15
2024-01-20T09:29:11.619Z,4.95
2024-01-20T09:30:14.133Z,6.00
2024-01-20T09:31:17.099Z,4.93
2024-01-20T09:32:19.068Z,7.78
2024-01-20T09:33:22.107Z,5.65
2024-01-20T09:34:24.176Z,7.15
2024-01-20T09:35:27.173Z,5.88
2024-01-20T09:36:29.168Z,7.18
2024-01-20T09:37:32.169Z,5.57
2024-01-20T09:38:34.154Z,5.30
2024-01-20T09:39:36.206Z,6.88
2024-01-20T09:40:39.189Z,8.18
2024-01-20T09:41:43.640Z,5.95
2024-01-20T09:42:47.780Z,4.40
2024-01-20T09:43:50.458Z,8.73
2024-01-20T09:44:54.404Z,5.60
2024-01-20T09:45:58.329Z,5.85
2024-01-20T09:47:01.529Z,5.05
2024-01-20T09:48:05.582Z,5.80
2024-01-20T09:49:08.745Z,8.70
2024-01-20T09:50:11.475Z,4.53
2024-01-20T09:51:14.600Z,5.78
2024-01-20T09:52:18.276Z,4.07
2024-01-20T09:53:21.334Z,4.20
2024-01-20T09:54:23.239Z,4.82
2024-01-20T09:55:27.559Z,5.82
2024-01-20T09:56:29.874Z,5.90
2024-01-20T09:57:36.471Z,5.13
2024-01-20T09:58:38.766Z,6.22
2024-01-20T10:00:02.516Z,5.40
2024-01-20T10:01:14.867Z,4.95
2024-01-20T10:02:19.350Z,7.10
2024-01-20T10:03:26.648Z,3.10
2024-01-20T10:04:29.910Z,7.57
2024-01-20T10:05:33.771Z,5.20
2024-01-20T10:06:35.991Z,5.38
2024-01-20T10:07:39.035Z,3.67
2024-01-20T10:08:40.985Z,7.20
2024-01-20T10:09:44.477Z,4.03
2024-01-20T10:10:46.537Z,4.80
2024-01-20T10:11:49.396Z,4.13
2024-01-20T10:12:54.433Z,4.80
2024-01-20T10:13:57.857Z,4.07
2024-01-20T10:14:59.835Z,5.95
2024-01-20T10:16:02.718Z,6.82
2024-01-20T10:17:04.713Z,4.30
2024-01-20T10:18:09.345Z,4.50
2024-01-20T10:19:11.447Z,5.70
2024-01-20T10:20:20.499Z,7.05
2024-01-20T10:21:24.096Z,5.18
2024-01-20T10:22:27.106Z,6.05
2024-01-20T10:23:29.129Z,4.00
2024-01-20T10:24:32.198Z,4.80
2024-01-20T10:25:34.249Z,5.00
2024-01-20T10:26:43.855Z,4.35
2024-01-20T10:27:46.241Z,6.50
2024-01-20T10:28:50.595Z,5.63
2024-01-20T10:29:52.841Z,4.50
2024-01-20T10:30:55.907Z,5.20
2024-01-20T10:31:57.787Z,4.90
2024-01-20T10:33:09.277Z,4.43
2024-01-20T10:34:12.982Z,5.63
2024-01-20T10:35:16.115Z,5.28
2024-01-20T10:36:18.838Z,5.68
2024-01-20T10:37:27.757Z,4.03
2024-01-20T10:38:30.150Z,5.38
2024-01-20T10:39:34.829Z,4.13
2024-01-20T10:40:41.478Z,3.78
2024-01-20T10:41:49.014Z,6.03
2024-01-20T10:42:57.102Z,4.50
2024-01-20T10:44:04.105Z,4.88
2024-01-20T10:45:10.762Z,5.13
2024-01-20T10:46:19.848Z,4.30
2024-01-20T10:47:30.416Z,4.30
2024-01-20T10:48:36.160Z,6.13
2024-01-20T10:49:47.146Z,4.75
2024-01-20T10:50:54.812Z,5.88
2024-01-20T10:51:57.626Z,3.80
2024-01-20T10:53:00.714Z,5.10
2024-01-20T10:54:03.794Z,3.90
2024-01-20T10:55:06.502Z,4.20
2024-01-20T10:56:10.381Z,4.25
2024-01-20T10:57:12.639Z,3.78
2024-01-20T10:58:19.641Z,3.67
2024-01-20T10:59:28.856Z,3.50
2024-01-20T11:00:32.571Z,3.85
2024-01-20T11:01:34.855Z,4.72
2024-01-20T11:02:38.256Z,4.55
2024-01-20T11:03:40.349Z,4.10
2024-01-20T11:04:45.418Z,4.65
2024-01-20T11:05:48.364Z,4.70
2024-01-20T11:06:52.398Z,4.15
2024-01-20T11:07:58.561Z,4.80
2024-01-20T11:09:02.714Z,3.40
2024-01-20T11:10:06.326Z,4.45
2024-01-20T11:11:11.013Z,4.55
2024-01-20T11:12:13.966Z,4.57
2024-01-20T11:13:16.726Z,3.60
2024-01-20T11:14:21.071Z,3.70
2024-01-20T11:15:30.082Z,5.15
2024-01-20T11:16:34.392Z,3.05
2024-01-20T11:17:36.370Z,3.90
2024-01-20T11:18:41.572Z,3.45
2024-01-20T11:19:44.199Z,3.55
2024-01-20T11:20:59.114Z,4.82
2024-01-20T11:22:01.069Z,3.10
2024-01-20T11:23:10.227Z,4.00
2024-01-20T11:24:13.696Z,4.53
2024-01-20T11:25:19.248Z,5.30
2024-01-20T11:26:21.152Z,2.70
2024-01-20T11:27:24.202Z,2.65
2024-01-20T11:28:27.427Z,5.13
2024-01-20T11:29:30.336Z,3.88
2024-01-20T11:30:35.826Z,4.43
2024-01-20T11:31:38.839Z,3.50
2024-01-20T11:32:41.058Z,8.38
2024-01-20T11:33:43.201Z,3.75
2024-01-20T11:34:49.737Z,6.85
2024-01-20T11:35:53.580Z,6.15
2024-01-20T11:37:00.314Z,4.28
2024-01-20T11:38:04.111Z,3.45
2024-01-20T11:39:07.628Z,5.90
2024-01-20T11:40:11.169Z,4.03
2024-01-20T11:41:18.161Z,5.90
2024-01-20T11:42:21.247Z,4.10
2024-01-20T11:43:24.483Z,3.35
2024-01-20T11:44:26.417Z,7.78
2024-01-20T11:45:58.607Z,3.50
2024-01-20T11:47:01.048Z,2.80
2024-01-20T11:48:05.802Z,7.75
2024-01-20T11:49:07.894Z,6.00
2024-01-20T11:50:11.985Z,4.60
2024-01-20T11:51:17.017Z,2.92
2024-01-20T11:52:22.792Z,4.72
2024-01-20T11:53:24.733Z,5.88
2024-01-20T11:54:27.879Z,6.22
2024-01-20T11:55:29.880Z,4.88
2024-01-20T11:56:32.797Z,3.05
2024-01-20T11:57:35.047Z,2.90
2024-01-20T11:58:38.126Z,5.95
2024-01-20T11:59:40.119Z,5.53
2024-01-20T12:00:44.480Z,4.80
2024-01-20T12:01:49.693Z,3.65
2024-01-20T12:02:53.833Z,3.45
2024-01-20T12:03:55.832Z,2.78
2024-01-20T12:05:04.438Z,3.05
2024-01-20T12:06:13.043Z,5.05
2024-01-20T12:07:19.389Z,3.97
2024-01-20T12:08:21.917Z,2.67
2024-01-20T12:09:24.799Z,3.28
2024-01-20T12:10:26.721Z,4.82
2024-01-20T12:11:29.676Z,5.38
2024-01-20T12:12:31.619Z,2.92
2024-01-20T12:13:36.853Z,2.78
2024-01-20T12:14:41.378Z,3.15
2024-01-20T12:15:44.605Z,3.97
2024-01-20T12:16:48.390Z,3.72
2024-01-20T12:17:51.469Z,4.07
2024-01-20T12:18:53.554Z,2.85
2024-01-20T12:19:56.705Z,3.08
2024-01-20T12:20:59.497Z,3.92
2024-01-20T12:22:01.651Z,4.63
2024-01-20T12:23:05.549Z,3.55
2024-01-20T12:24:10.268Z,3.38
2024-01-20T12:25:14.524Z,3.15
2024-01-20T12:26:17.672Z,4.50
2024-01-20T12:27:20.696Z,2.92
2024-01-20T12:28:22.787Z,2.92
2024-01-20T12:29:25.714Z,3.20
2024-01-20T12:30:27.951Z,3.75
2024-01-20T12:31:31.613Z,5.03
2024-01-20T12:32:35.051Z,3.92
2024-01-20T12:33:38.084Z,4.38
2024-01-20T12:34:40.019Z,3.08
2024-01-20T12:35:42.950Z,5.15
2024-01-20T12:36:44.905Z,4.75
2024-01-20T12:37:49.705Z,3.08
2024-01-20T12:38:51.619Z,5.82
2024-01-20T12:39:54.460Z,6.50
2024-01-20T12:40:56.543Z,4.90
2024-01-20T12:41:59.533Z,3.50
2024-01-20T12:43:02.003Z,3.78
2024-01-20T12:44:05.144Z,3.47
2024-01-20T12:45:08.334Z,5.63
2024-01-20T12:46:11.254Z,4.60
2024-01-20T12:47:13.219Z,4.68
2024-01-20T12:48:17.627Z,3.60
2024-01-20T12:49:21.517Z,5.25
2024-01-20T12:50:24.511Z,3.75
2024-01-20T12:51:26.468Z,4.90
2024-01-20T12:52:29.465Z,3.03
2024-01-20T12:53:31.497Z,3.83
2024-01-20T12:54:34.536Z,3.45
2024-01-20T12:55:36.858Z,4.20
2024-01-20T12:56:39.801Z,4.85
2024-01-20T12:57:41.820Z,4.40
2024-01-20T12:58:44.745Z,4.28
2024-01-20T12:59:47.409Z,5.70
2024-01-20T13:00:49.323Z,5.93
2024-01-20T13:01:52.806Z,5.68
2024-01-20T13:02:54.746Z,4.22
2024-01-20T13:03:58.128Z,4.15
2024-01-20T13:05:01.042Z,6.13
2024-01-20T13:06:03.032Z,3.63
2024-01-20T13:07:06.134Z,4.65
2024-01-20T13:08:08.120Z,4.80
2024-01-20T13:09:11.500Z,3.80
2024-01-20T13:10:13.481Z,5.72
2024-01-20T13:11:16.740Z,4.82
2024-01-20T13:12:19.017Z,5.18
2024-01-20T13:13:22.499Z,4.75
2024-01-20T13:14:24.570Z,5.28
2024-01-20T13:15:27.575Z,4.63
2024-01-20T13:16:29.710Z,3.85
2024-01-20T13:17:32.650Z,7.30
2024-01-20T13:18:34.764Z,3.85
2024-01-20T13:19:39.159Z,3.70
2024-01-20T13:20:41.206Z,4.18
2024-01-20T13:21:44.827Z,4.00
2024-01-20T13:22:47.721Z,7.32
2024-01-20T13:23:49.948Z,3.53
2024-01-20T13:24:54.474Z,4.50
2024-01-20T13:25:56.778Z,5.95
2024-01-20T13:26:59.783Z,4.78
2024-01-20T13:28:01.908Z,3.03
2024-01-20T13:29:04.812Z,4.20
2024-01-20T13:30:08.043Z,6.15
2024-01-20T13:31:11.034Z,4.80
2024-01-20T13:32:13.165Z,7.28
2024-01-20T13:33:16.350Z,4.97
2024-01-20T13:34:18.436Z,6.10
2024-01-20T13:35:23.024Z,3.90
2024-01-20T13:36:25.788Z,4.53
2024-01-20T13:37:28.681Z,3.33
2024-01-20T13:38:31.010Z,4.50
2024-01-20T13:39:34.393Z,7.65
2024-01-20T13:40:37.309Z,5.88
2024-01-20T13:41:39.218Z,4.63
2024-01-20T13:42:43.667Z,7.90
2024-01-20T13:43:46.785Z,5.30
2024-01-20T13:44:48.686Z,6.35
2024-01-20T13:45:51.627Z,4.75
2024-01-20T13:46:53.623Z,7.53
2024-01-20T13:47:56.495Z,4.90
2024-01-20T13:48:59.505Z,5.05
2024-01-20T13:50:03.724Z,6.03
2024-01-20T13:51:07.138Z,7.10
2024-01-20T13:52:10.044Z,5.28
2024-01-20T13:53:11.993Z,5.63
2024-01-20T13:54:15.010Z,4.43